sensor_id;sensor_type;location;lat;lon;timestamp;P1;durP1;ratioP1;P2;durP2;ratioP2
75823;SDS011;64457;51.976;9.834;2023-06-10T00:00:38;11.90;;;4.60;;
75823;SDS011;64457;51.976;9.834;2023-06-10T00:03:08;12.80;;;4.17;;
75823;SDS011;64457;51.976;9.834;2023-06-10T00:05:36;12.10;;;4.00;;
75823;SDS011;64457;51.976;9.834;2023-06-10T00:08:05;13.93;;;4.30;;
75823;SDS011;64457;51.976;9.834;2023-06-10T00:10:33;10.40;;;4.07;;
75823;SDS011;64457;51.976;9.834;2023-06-10T00:13:02;11.10;;;3.63;;
75823;SDS011;64457;51.976;9.834;2023-06-10T00:15:30;13.30;;;4.13;;
75823;SDS011;64457;51.976;9.834;2023-06-10T00:17:58;12.60;;;4.03;;
75823;SDS011;64457;51.976;9.834;2023-06-10T00:20:27;18.57;;;5.20;;
75823;SDS011;64457;51.976;9.834;2023-06-10T00:22:55;13.03;;;4.33;;
75823;SDS011;64457;51.976;9.834;2023-06-10T00:25:26;13.40;;;4.53;;
75823;SDS011;64457;51.976;9.834;2023-06-10T00:27:56;10.80;;;4.13;;
75823;SDS011;64457;51.976;9.834;2023-06-10T00:30:24;11.80;;;4.60;;
75823;SDS011;64457;51.976;9.834;2023-06-10T00:32:54;13.13;;;4.33;;
75823;SDS011;64457;51.976;9.834;2023-06-10T00:35:21;12.53;;;4.90;;
75823;SDS011;64457;51.976;9.834;2023-06-10T00:37:50;13.23;;;5.00;;
75823;SDS011;64457;51.976;9.834;2023-06-10T00:40:17;11.90;;;4.37;;
75823;SDS011;64457;51.976;9.834;2023-06-10T00:42:44;12.67;;;4.80;;
75823;SDS011;64457;51.976;9.834;2023-06-10T00:45:12;12.33;;;4.67;;
75823;SDS011;64457;51.976;9.834;2023-06-10T00:47:39;12.33;;;4.70;;
75823;SDS011;64457;51.976;9.834;2023-06-10T00:50:07;11.47;;;4.60;;
75823;SDS011;64457;51.976;9.834;2023-06-10T00:52:35;17.30;;;4.73;;
75823;SDS011;64457;51.976;9.834;2023-06-10T00:55:05;14.17;;;4.70;;
75823;SDS011;64457;51.976;9.834;2023-06-10T00:57:34;12.13;;;5.03;;
75823;SDS011;64457;51.976;9.834;2023-06-10T01:00:05;13.57;;;4.40;;
75823;SDS011;64457;51.976;9.834;2023-06-10T01:02:35;14.03;;;5.10;;
75823;SDS011;64457;51.976;9.834;2023-06-10T01:05:04;12.50;;;4.50;;
75823;SDS011;64457;51.976;9.834;2023-06-10T01:07:34;13.83;;;4.70;;
75823;SDS011;64457;51.976;9.834;2023-06-10T01:10:09;16.33;;;4.90;;
75823;SDS011;64457;51.976;9.834;2023-06-10T01:12:45;13.00;;;4.70;;
75823;SDS011;64457;51.976;9.834;2023-06-10T01:15:19;12.00;;;4.47;;
75823;SDS011;64457;51.976;9.834;2023-06-10T01:17:55;12.90;;;5.47;;
75823;SDS011;64457;51.976;9.834;2023-06-10T01:20:24;12.47;;;4.27;;
75823;SDS011;64457;51.976;9.834;2023-06-10T01:22:55;12.70;;;4.93;;
75823;SDS011;64457;51.976;9.834;2023-06-10T01:25:23;12.10;;;5.03;;
75823;SDS011;64457;51.976;9.834;2023-06-10T01:27:54;15.60;;;5.47;;
75823;SDS011;64457;51.976;9.834;2023-06-10T01:30:37;17.00;;;5.03;;
75823;SDS011;64457;51.976;9.834;2023-06-10T01:33:14;12.83;;;4.60;;
75823;SDS011;64457;51.976;9.834;2023-06-10T01:35:50;12.00;;;4.80;;
75823;SDS011;64457;51.976;9.834;2023-06-10T01:38:19;14.20;;;5.20;;
75823;SDS011;64457;51.976;9.834;2023-06-10T01:40:48;13.20;;;4.80;;
75823;SDS011;64457;51.976;9.834;2023-06-10T01:43:16;14.70;;;5.10;;
75823;SDS011;64457;51.976;9.834;2023-06-10T01:45:43;12.30;;;5.50;;
75823;SDS011;64457;51.976;9.834;2023-06-10T01:48:10;12.00;;;4.87;;
75823;SDS011;64457;51.976;9.834;2023-06-10T01:50:38;11.60;;;5.10;;
75823;SDS011;64457;51.976;9.834;2023-06-10T01:53:05;14.50;;;5.83;;
75823;SDS011;64457;51.976;9.834;2023-06-10T01:55:34;17.33;;;5.00;;
75823;SDS011;64457;51.976;9.834;2023-06-10T01:58:02;15.57;;;5.50;;
75823;SDS011;64457;51.976;9.834;2023-06-10T02:00:29;15.97;;;5.20;;
75823;SDS011;64457;51.976;9.834;2023-06-10T02:02:56;14.90;;;5.23;;
75823;SDS011;64457;51.976;9.834;2023-06-10T02:05:24;14.43;;;5.60;;
75823;SDS011;64457;51.976;9.834;2023-06-10T02:07:52;17.10;;;5.27;;
75823;SDS011;64457;51.976;9.834;2023-06-10T02:10:20;13.30;;;5.37;;
75823;SDS011;64457;51.976;9.834;2023-06-10T02:12:49;14.30;;;5.53;;
75823;SDS011;64457;51.976;9.834;2023-06-10T02:15:16;12.23;;;4.93;;
75823;SDS011;64457;51.976;9.834;2023-06-10T02:17:44;11.40;;;5.07;;
75823;SDS011;64457;51.976;9.834;2023-06-10T02:20:14;16.43;;;5.90;;
75823;SDS011;64457;51.976;9.834;2023-06-10T02:22:41;13.37;;;5.80;;
75823;SDS011;64457;51.976;9.834;2023-06-10T02:25:09;14.87;;;5.80;;
75823;SDS011;64457;51.976;9.834;2023-06-10T02:27:37;14.70;;;6.00;;
75823;SDS011;64457;51.976;9.834;2023-06-10T02:30:08;18.80;;;6.60;;
75823;SDS011;64457;51.976;9.834;2023-06-10T02:32:38;15.67;;;5.97;;
75823;SDS011;64457;51.976;9.834;2023-06-10T02:35:06;14.73;;;6.07;;
75823;SDS011;64457;51.976;9.834;2023-06-10T02:37:37;13.20;;;5.83;;
75823;SDS011;64457;51.976;9.834;2023-06-10T02:40:05;22.40;;;6.20;;
75823;SDS011;64457;51.976;9.834;2023-06-10T02:42:35;15.60;;;7.20;;
75823;SDS011;64457;51.976;9.834;2023-06-10T02:45:03;20.83;;;6.53;;
75823;SDS011;64457;51.976;9.834;2023-06-10T02:47:39;19.43;;;6.70;;
75823;SDS011;64457;51.976;9.834;2023-06-10T02:50:08;14.33;;;6.60;;
75823;SDS011;64457;51.976;9.834;2023-06-10T02:52:35;17.93;;;7.07;;
75823;SDS011;64457;51.976;9.834;2023-06-10T02:55:04;15.50;;;6.70;;
75823;SDS011;64457;51.976;9.834;2023-06-10T02:57:32;15.53;;;6.80;;
75823;SDS011;64457;51.976;9.834;2023-06-10T02:59:59;15.20;;;6.17;;
75823;SDS011;64457;51.976;9.834;2023-06-10T03:02:36;18.93;;;6.30;;
75823;SDS011;64457;51.976;9.834;2023-06-10T03:05:05;15.57;;;6.73;;
75823;SDS011;64457;51.976;9.834;2023-06-10T03:07:35;15.13;;;6.47;;
75823;SDS011;64457;51.976;9.834;2023-06-10T03:10:04;17.37;;;6.97;;
75823;SDS011;64457;51.976;9.834;2023-06-10T03:12:32;13.80;;;6.40;;
75823;SDS011;64457;51.976;9.834;2023-06-10T03:15:00;18.00;;;6.30;;
75823;SDS011;64457;51.976;9.834;2023-06-10T03:17:29;15.37;;;5.60;;
75823;SDS011;64457;51.976;9.834;2023-06-10T03:19:58;15.17;;;6.33;;
75823;SDS011;64457;51.976;9.834;2023-06-10T03:22:25;15.33;;;7.00;;
75823;SDS011;64457;51.976;9.834;2023-06-10T03:24:53;19.20;;;6.50;;
75823;SDS011;64457;51.976;9.834;2023-06-10T03:27:22;17.33;;;6.57;;
75823;SDS011;64457;51.976;9.834;2023-06-10T03:29:50;14.10;;;6.03;;
75823;SDS011;64457;51.976;9.834;2023-06-10T03:32:17;13.93;;;5.77;;
75823;SDS011;64457;51.976;9.834;2023-06-10T03:34:45;16.67;;;6.70;;
75823;SDS011;64457;51.976;9.834;2023-06-10T03:37:14;20.90;;;6.30;;
75823;SDS011;64457;51.976;9.834;2023-06-10T03:39:41;14.57;;;6.37;;
75823;SDS011;64457;51.976;9.834;2023-06-10T03:42:09;12.90;;;5.90;;
75823;SDS011;64457;51.976;9.834;2023-06-10T03:44:36;14.40;;;6.10;;
75823;SDS011;64457;51.976;9.834;2023-06-10T03:47:04;14.00;;;5.73;;
75823;SDS011;64457;51.976;9.834;2023-06-10T03:49:32;18.30;;;5.90;;
75823;SDS011;64457;51.976;9.834;2023-06-10T03:52:02;13.87;;;5.87;;
75823;SDS011;64457;51.976;9.834;2023-06-10T03:54:31;16.70;;;6.40;;
75823;SDS011;64457;51.976;9.834;2023-06-10T03:56:59;14.50;;;5.90;;
75823;SDS011;64457;51.976;9.834;2023-06-10T03:59:28;15.83;;;6.00;;
75823;SDS011;64457;51.976;9.834;2023-06-10T04:01:55;12.20;;;5.50;;
75823;SDS011;64457;51.976;9.834;2023-06-10T04:04:23;18.30;;;6.17;;
75823;SDS011;64457;51.976;9.834;2023-06-10T04:06:51;13.60;;;6.03;;
75823;SDS011;64457;51.976;9.834;2023-06-10T04:09:18;15.60;;;6.17;;
75823;SDS011;64457;51.976;9.834;2023-06-10T04:11:47;12.93;;;6.03;;
75823;SDS011;64457;51.976;9.834;2023-06-10T04:14:14;16.60;;;6.53;;
75823;SDS011;64457;51.976;9.834;2023-06-10T04:16:41;18.20;;;6.10;;
75823;SDS011;64457;51.976;9.834;2023-06-10T04:19:09;17.47;;;6.20;;
75823;SDS011;64457;51.976;9.834;2023-06-10T04:21:37;14.37;;;5.60;;
75823;SDS011;64457;51.976;9.834;2023-06-10T04:24:04;13.87;;;6.37;;
75823;SDS011;64457;51.976;9.834;2023-06-10T04:26:32;22.90;;;6.20;;
75823;SDS011;64457;51.976;9.834;2023-06-10T04:29:03;15.30;;;6.33;;
75823;SDS011;64457;51.976;9.834;2023-06-10T04:31:31;15.00;;;5.63;;
75823;SDS011;64457;51.976;9.834;2023-06-10T04:33:59;16.40;;;6.63;;
75823;SDS011;64457;51.976;9.834;2023-06-10T04:36:28;19.87;;;6.43;;
75823;SDS011;64457;51.976;9.834;2023-06-10T04:38:55;14.53;;;6.77;;
75823;SDS011;64457;51.976;9.834;2023-06-10T04:41:24;17.00;;;6.20;;
75823;SDS011;64457;51.976;9.834;2023-06-10T04:43:53;13.30;;;6.10;;
75823;SDS011;64457;51.976;9.834;2023-06-10T04:46:23;18.13;;;6.70;;
75823;SDS011;64457;51.976;9.834;2023-06-10T04:48:51;15.60;;;6.83;;
75823;SDS011;64457;51.976;9.834;2023-06-10T04:51:19;18.00;;;7.13;;
75823;SDS011;64457;51.976;9.834;2023-06-10T04:53:47;16.83;;;6.53;;
75823;SDS011;64457;51.976;9.834;2023-06-10T04:56:14;19.23;;;6.80;;
75823;SDS011;64457;51.976;9.834;2023-06-10T04:58:42;16.60;;;6.73;;
75823;SDS011;64457;51.976;9.834;2023-06-10T05:01:09;16.70;;;7.30;;
75823;SDS011;64457;51.976;9.834;2023-06-10T05:03:38;15.97;;;6.70;;
75823;SDS011;64457;51.976;9.834;2023-06-10T05:06:05;13.00;;;6.43;;
75823;SDS011;64457;51.976;9.834;2023-06-10T05:08:33;14.17;;;6.90;;
75823;SDS011;64457;51.976;9.834;2023-06-10T05:11:00;16.83;;;6.80;;
75823;SDS011;64457;51.976;9.834;2023-06-10T05:13:29;15.60;;;7.00;;
75823;SDS011;64457;51.976;9.834;2023-06-10T05:15:56;19.20;;;7.30;;
75823;SDS011;64457;51.976;9.834;2023-06-10T05:18:24;21.17;;;6.50;;
75823;SDS011;64457;51.976;9.834;2023-06-10T05:20:53;17.40;;;6.77;;
75823;SDS011;64457;51.976;9.834;2023-06-10T05:23:20;17.37;;;6.87;;
75823;SDS011;64457;51.976;9.834;2023-06-10T05:25:48;20.30;;;7.53;;
75823;SDS011;64457;51.976;9.834;2023-06-10T05:28:16;15.00;;;6.77;;
75823;SDS011;64457;51.976;9.834;2023-06-10T05:30:43;17.37;;;7.03;;
75823;SDS011;64457;51.976;9.834;2023-06-10T05:33:10;16.10;;;7.10;;
75823;SDS011;64457;51.976;9.834;2023-06-10T05:35:38;14.13;;;6.10;;
75823;SDS011;64457;51.976;9.834;2023-06-10T05:38:07;20.40;;;7.40;;
75823;SDS011;64457;51.976;9.834;2023-06-10T05:40:34;18.67;;;6.70;;
75823;SDS011;64457;51.976;9.834;2023-06-10T05:43:02;16.73;;;6.17;;
75823;SDS011;64457;51.976;9.834;2023-06-10T05:45:29;15.83;;;5.80;;
75823;SDS011;64457;51.976;9.834;2023-06-10T05:47:57;12.80;;;4.60;;
75823;SDS011;64457;51.976;9.834;2023-06-10T05:50:24;14.80;;;5.53;;
75823;SDS011;64457;51.976;9.834;2023-06-10T05:52:51;14.57;;;5.20;;
75823;SDS011;64457;51.976;9.834;2023-06-10T05:55:21;15.77;;;5.37;;
75823;SDS011;64457;51.976;9.834;2023-06-10T05:57:57;12.47;;;4.83;;
75823;SDS011;64457;51.976;9.834;2023-06-10T06:00:26;14.20;;;5.23;;
75823;SDS011;64457;51.976;9.834;2023-06-10T06:02:54;17.27;;;4.77;;
75823;SDS011;64457;51.976;9.834;2023-06-10T06:05:22;14.73;;;5.00;;
75823;SDS011;64457;51.976;9.834;2023-06-10T06:07:50;12.07;;;4.80;;
75823;SDS011;64457;51.976;9.834;2023-06-10T06:10:17;11.33;;;4.53;;
75823;SDS011;64457;51.976;9.834;2023-06-10T06:12:46;13.83;;;4.57;;
75823;SDS011;64457;51.976;9.834;2023-06-10T06:15:14;13.63;;;4.70;;
75823;SDS011;64457;51.976;9.834;2023-06-10T06:17:42;11.53;;;4.80;;
75823;SDS011;64457;51.976;9.834;2023-06-10T06:20:09;15.00;;;4.40;;
75823;SDS011;64457;51.976;9.834;2023-06-10T06:22:38;13.60;;;4.43;;
75823;SDS011;64457;51.976;9.834;2023-06-10T06:25:06;11.73;;;4.23;;
75823;SDS011;64457;51.976;9.834;2023-06-10T06:27:34;10.53;;;4.27;;
75823;SDS011;64457;51.976;9.834;2023-06-10T06:30:03;10.23;;;4.23;;
75823;SDS011;64457;51.976;9.834;2023-06-10T06:32:33;11.43;;;4.20;;
75823;SDS011;64457;51.976;9.834;2023-06-10T06:35:00;14.80;;;4.27;;
75823;SDS011;64457;51.976;9.834;2023-06-10T06:37:30;10.33;;;4.20;;
75823;SDS011;64457;51.976;9.834;2023-06-10T06:39:57;14.27;;;5.00;;
75823;SDS011;64457;51.976;9.834;2023-06-10T06:42:29;12.53;;;4.00;;
75823;SDS011;64457;51.976;9.834;2023-06-10T06:44:56;11.83;;;4.43;;
75823;SDS011;64457;51.976;9.834;2023-06-10T06:47:25;10.80;;;3.90;;
75823;SDS011;64457;51.976;9.834;2023-06-10T06:49:53;14.13;;;4.87;;
75823;SDS011;64457;51.976;9.834;2023-06-10T06:52:20;9.93;;;4.00;;
75823;SDS011;64457;51.976;9.834;2023-06-10T06:54:48;11.63;;;4.90;;
75823;SDS011;64457;51.976;9.834;2023-06-10T06:57:16;11.13;;;4.60;;
75823;SDS011;64457;51.976;9.834;2023-06-10T06:59:43;9.30;;;4.33;;
75823;SDS011;64457;51.976;9.834;2023-06-10T07:02:12;11.53;;;4.77;;
75823;SDS011;64457;51.976;9.834;2023-06-10T07:04:41;14.40;;;7.20;;
75823;SDS011;64457;51.976;9.834;2023-06-10T07:07:09;11.73;;;5.47;;
75823;SDS011;64457;51.976;9.834;2023-06-10T07:09:36;14.20;;;5.00;;
75823;SDS011;64457;51.976;9.834;2023-06-10T07:12:05;11.30;;;4.50;;
75823;SDS011;64457;51.976;9.834;2023-06-10T07:14:34;11.90;;;5.30;;
75823;SDS011;64457;51.976;9.834;2023-06-10T07:17:04;11.10;;;5.23;;
75823;SDS011;64457;51.976;9.834;2023-06-10T07:19:36;12.60;;;4.87;;
75823;SDS011;64457;51.976;9.834;2023-06-10T07:22:05;11.90;;;5.03;;
75823;SDS011;64457;51.976;9.834;2023-06-10T07:24:32;14.83;;;5.80;;
75823;SDS011;64457;51.976;9.834;2023-06-10T07:27:00;12.63;;;5.50;;
75823;SDS011;64457;51.976;9.834;2023-06-10T07:29:27;10.40;;;5.23;;
75823;SDS011;64457;51.976;9.834;2023-06-10T07:31:55;11.73;;;5.63;;
75823;SDS011;64457;51.976;9.834;2023-06-10T07:34:22;14.70;;;5.97;;
75823;SDS011;64457;51.976;9.834;2023-06-10T07:36:49;11.97;;;6.30;;
75823;SDS011;64457;51.976;9.834;2023-06-10T07:39:18;12.80;;;6.13;;
75823;SDS011;64457;51.976;9.834;2023-06-10T07:41:46;13.23;;;5.77;;
75823;SDS011;64457;51.976;9.834;2023-06-10T07:44:14;19.13;;;6.50;;
75823;SDS011;64457;51.976;9.834;2023-06-10T07:46:42;13.30;;;5.80;;
75823;SDS011;64457;51.976;9.834;2023-06-10T07:49:09;14.97;;;6.27;;
75823;SDS011;64457;51.976;9.834;2023-06-10T07:51:37;12.63;;;7.03;;
75823;SDS011;64457;51.976;9.834;2023-06-10T07:54:05;14.20;;;6.70;;
75823;SDS011;64457;51.976;9.834;2023-06-10T07:56:34;12.70;;;6.47;;
75823;SDS011;64457;51.976;9.834;2023-06-10T07:59:01;16.00;;;7.97;;
75823;SDS011;64457;51.976;9.834;2023-06-10T08:01:29;17.87;;;7.03;;
75823;SDS011;64457;51.976;9.834;2023-06-10T08:03:58;10.57;;;6.30;;
75823;SDS011;64457;51.976;9.834;2023-06-10T08:06:25;14.27;;;7.23;;
75823;SDS011;64457;51.976;9.834;2023-06-10T08:08:52;10.73;;;6.27;;
75823;SDS011;64457;51.976;9.834;2023-06-10T08:11:20;11.60;;;6.80;;
75823;SDS011;64457;51.976;9.834;2023-06-10T08:13:49;10.07;;;5.77;;
75823;SDS011;64457;51.976;9.834;2023-06-10T08:16:16;14.27;;;6.67;;
75823;SDS011;64457;51.976;9.834;2023-06-10T08:18:44;11.13;;;6.20;;
75823;SDS011;64457;51.976;9.834;2023-06-10T08:21:11;14.63;;;7.27;;
75823;SDS011;64457;51.976;9.834;2023-06-10T08:23:40;13.43;;;6.70;;
75823;SDS011;64457;51.976;9.834;2023-06-10T08:26:07;14.37;;;6.43;;
75823;SDS011;64457;51.976;9.834;2023-06-10T08:28:35;9.87;;;6.00;;
75823;SDS011;64457;51.976;9.834;2023-06-10T08:31:04;13.87;;;6.10;;
75823;SDS011;64457;51.976;9.834;2023-06-10T08:33:31;13.73;;;6.40;;
75823;SDS011;64457;51.976;9.834;2023-06-10T08:35:59;11.97;;;6.17;;
75823;SDS011;64457;51.976;9.834;2023-06-10T08:38:28;10.83;;;5.60;;
75823;SDS011;64457;51.976;9.834;2023-06-10T08:40:58;13.87;;;6.30;;
75823;SDS011;64457;51.976;9.834;2023-06-10T08:43:29;12.43;;;7.17;;
75823;SDS011;64457;51.976;9.834;2023-06-10T08:46:01;12.57;;;6.67;;
75823;SDS011;64457;51.976;9.834;2023-06-10T08:48:30;12.20;;;7.00;;
75823;SDS011;64457;51.976;9.834;2023-06-10T08:51:00;18.73;;;7.47;;
75823;SDS011;64457;51.976;9.834;2023-06-10T08:53:31;13.30;;;6.73;;
75823;SDS011;64457;51.976;9.834;2023-06-10T08:56:05;13.50;;;7.50;;
75823;SDS011;64457;51.976;9.834;2023-06-10T08:58:32;13.63;;;7.13;;
75823;SDS011;64457;51.976;9.834;2023-06-10T09:01:05;14.00;;;7.57;;
75823;SDS011;64457;51.976;9.834;2023-06-10T09:03:35;15.07;;;7.30;;
75823;SDS011;64457;51.976;9.834;2023-06-10T09:06:04;17.50;;;8.47;;
75823;SDS011;64457;51.976;9.834;2023-06-10T09:08:33;16.80;;;8.30;;
75823;SDS011;64457;51.976;9.834;2023-06-10T09:11:01;16.50;;;8.90;;
75823;SDS011;64457;51.976;9.834;2023-06-10T09:13:29;12.87;;;7.83;;
75823;SDS011;64457;51.976;9.834;2023-06-10T09:15:56;17.37;;;8.63;;
75823;SDS011;64457;51.976;9.834;2023-06-10T09:18:26;16.27;;;8.97;;
75823;SDS011;64457;51.976;9.834;2023-06-10T09:20:56;16.97;;;8.70;;
75823;SDS011;64457;51.976;9.834;2023-06-10T09:23:23;15.43;;;8.80;;
75823;SDS011;64457;51.976;9.834;2023-06-10T09:25:56;18.37;;;9.57;;
75823;SDS011;64457;51.976;9.834;2023-06-10T09:28:24;16.30;;;8.93;;
75823;SDS011;64457;51.976;9.834;2023-06-10T09:31:01;17.43;;;9.47;;
75823;SDS011;64457;51.976;9.834;2023-06-10T09:33:31;20.27;;;9.03;;
75823;SDS011;64457;51.976;9.834;2023-06-10T09:36:00;20.77;;;9.00;;
75823;SDS011;64457;51.976;9.834;2023-06-10T09:38:29;19.77;;;7.80;;
75823;SDS011;64457;51.976;9.834;2023-06-10T09:40:58;15.20;;;8.00;;
75823;SDS011;64457;51.976;9.834;2023-06-10T09:43:38;18.43;;;8.37;;
75823;SDS011;64457;51.976;9.834;2023-06-10T09:46:13;14.37;;;7.17;;
75823;SDS011;64457;51.976;9.834;2023-06-10T09:48:43;11.87;;;5.57;;
75823;SDS011;64457;51.976;9.834;2023-06-10T09:51:14;15.57;;;6.30;;
75823;SDS011;64457;51.976;9.834;2023-06-10T09:53:43;15.07;;;6.60;;
75823;SDS011;64457;51.976;9.834;2023-06-10T09:56:18;12.97;;;6.00;;
75823;SDS011;64457;51.976;9.834;2023-06-10T09:58:46;15.10;;;6.07;;
75823;SDS011;64457;51.976;9.834;2023-06-10T10:01:14;14.03;;;6.27;;
75823;SDS011;64457;51.976;9.834;2023-06-10T10:03:43;16.87;;;6.67;;
75823;SDS011;64457;51.976;9.834;2023-06-10T10:06:14;13.87;;;6.43;;
75823;SDS011;64457;51.976;9.834;2023-06-10T10:08:44;13.87;;;6.57;;
75823;SDS011;64457;51.976;9.834;2023-06-10T10:11:13;30.33;;;7.33;;
75823;SDS011;64457;51.976;9.834;2023-06-10T10:13:43;23.53;;;6.90;;
75823;SDS011;64457;51.976;9.834;2023-06-10T10:16:15;19.23;;;7.20;;
75823;SDS011;64457;51.976;9.834;2023-06-10T10:18:46;14.87;;;6.80;;
75823;SDS011;64457;51.976;9.834;2023-06-10T10:21:23;14.97;;;7.50;;
75823;SDS011;64457;51.976;9.834;2023-06-10T10:23:58;20.17;;;7.30;;
75823;SDS011;64457;51.976;9.834;2023-06-10T10:26:34;25.53;;;7.23;;
75823;SDS011;64457;51.976;9.834;2023-06-10T10:29:07;17.63;;;7.67;;
75823;SDS011;64457;51.976;9.834;2023-06-10T10:31:38;21.57;;;7.67;;
75823;SDS011;64457;51.976;9.834;2023-06-10T10:34:10;18.70;;;6.77;;
75823;SDS011;64457;51.976;9.834;2023-06-10T10:36:43;16.03;;;6.77;;
75823;SDS011;64457;51.976;9.834;2023-06-10T10:39:13;15.53;;;6.30;;
75823;SDS011;64457;51.976;9.834;2023-06-10T10:41:41;16.63;;;5.90;;
75823;SDS011;64457;51.976;9.834;2023-06-10T10:44:11;17.57;;;7.17;;
75823;SDS011;64457;51.976;9.834;2023-06-10T10:46:42;17.43;;;7.23;;
75823;SDS011;64457;51.976;9.834;2023-06-10T10:49:10;20.63;;;6.83;;
75823;SDS011;64457;51.976;9.834;2023-06-10T10:51:56;18.97;;;7.90;;
75823;SDS011;64457;51.976;9.834;2023-06-10T10:54:28;18.23;;;8.47;;
75823;SDS011;64457;51.976;9.834;2023-06-10T10:57:16;13.70;;;7.40;;
75823;SDS011;64457;51.976;9.834;2023-06-10T10:59:51;14.53;;;6.50;;
75823;SDS011;64457;51.976;9.834;2023-06-10T11:02:35;16.37;;;6.87;;
75823;SDS011;64457;51.976;9.834;2023-06-10T11:05:05;16.20;;;6.83;;
75823;SDS011;64457;51.976;9.834;2023-06-10T11:07:35;17.07;;;6.73;;
75823;SDS011;64457;51.976;9.834;2023-06-10T11:10:06;13.57;;;6.93;;
75823;SDS011;64457;51.976;9.834;2023-06-10T11:12:49;15.13;;;6.93;;
75823;SDS011;64457;51.976;9.834;2023-06-10T11:15:19;17.53;;;7.40;;
75823;SDS011;64457;51.976;9.834;2023-06-10T11:18:11;17.63;;;7.00;;
75823;SDS011;64457;51.976;9.834;2023-06-10T11:20:44;15.73;;;6.57;;
75823;SDS011;64457;51.976;9.834;2023-06-10T11:26:13;14.37;;;6.47;;
75823;SDS011;64457;51.976;9.834;2023-06-10T11:29:08;16.93;;;7.00;;
75823;SDS011;64457;51.976;9.834;2023-06-10T11:31:40;17.13;;;7.50;;
75823;SDS011;64457;51.976;9.834;2023-06-10T11:34:13;17.63;;;6.97;;
75823;SDS011;64457;51.976;9.834;2023-06-10T11:36:42;12.63;;;6.70;;
75823;SDS011;64457;51.976;9.834;2023-06-10T11:39:13;15.40;;;7.67;;
75823;SDS011;64457;51.976;9.834;2023-06-10T11:41:40;17.00;;;7.60;;
75823;SDS011;64457;51.976;9.834;2023-06-10T11:44:08;16.83;;;7.60;;
75823;SDS011;64457;51.976;9.834;2023-06-10T11:46:37;14.77;;;7.40;;
75823;SDS011;64457;51.976;9.834;2023-06-10T11:49:07;20.10;;;7.73;;
75823;SDS011;64457;51.976;9.834;2023-06-10T11:51:35;15.50;;;7.07;;
75823;SDS011;64457;51.976;9.834;2023-06-10T11:54:07;16.37;;;6.47;;
75823;SDS011;64457;51.976;9.834;2023-06-10T11:56:37;15.10;;;7.00;;
75823;SDS011;64457;51.976;9.834;2023-06-10T11:59:06;13.40;;;6.70;;
75823;SDS011;64457;51.976;9.834;2023-06-10T12:01:34;14.93;;;7.00;;
75823;SDS011;64457;51.976;9.834;2023-06-10T12:04:05;15.43;;;7.00;;
75823;SDS011;64457;51.976;9.834;2023-06-10T12:06:38;12.40;;;6.77;;
75823;SDS011;64457;51.976;9.834;2023-06-10T12:09:09;14.77;;;6.40;;
75823;SDS011;64457;51.976;9.834;2023-06-10T12:11:45;14.83;;;6.50;;
75823;SDS011;64457;51.976;9.834;2023-06-10T12:14:16;13.50;;;6.40;;
75823;SDS011;64457;51.976;9.834;2023-06-10T12:17:24;14.70;;;6.77;;
75823;SDS011;64457;51.976;9.834;2023-06-10T12:20:04;14.50;;;6.40;;
75823;SDS011;64457;51.976;9.834;2023-06-10T12:22:37;14.03;;;6.83;;
75823;SDS011;64457;51.976;9.834;2023-06-10T12:25:06;19.00;;;7.20;;
75823;SDS011;64457;51.976;9.834;2023-06-10T12:27:39;13.43;;;6.63;;
75823;SDS011;64457;51.976;9.834;2023-06-10T12:30:18;13.37;;;6.90;;
75823;SDS011;64457;51.976;9.834;2023-06-10T12:32:47;13.13;;;6.50;;
75823;SDS011;64457;51.976;9.834;2023-06-10T12:35:16;13.90;;;6.67;;
75823;SDS011;64457;51.976;9.834;2023-06-10T12:37:54;14.23;;;6.17;;
75823;SDS011;64457;51.976;9.834;2023-06-10T12:40:25;13.10;;;5.87;;
75823;SDS011;64457;51.976;9.834;2023-06-10T12:42:55;11.60;;;5.80;;
75823;SDS011;64457;51.976;9.834;2023-06-10T12:45:26;13.20;;;5.37;;
75823;SDS011;64457;51.976;9.834;2023-06-10T12:48:03;13.43;;;5.70;;
75823;SDS011;64457;51.976;9.834;2023-06-10T12:50:34;10.97;;;5.70;;
75823;SDS011;64457;51.976;9.834;2023-06-10T12:53:03;10.83;;;5.90;;
75823;SDS011;64457;51.976;9.834;2023-06-10T12:55:32;11.40;;;5.00;;
75823;SDS011;64457;51.976;9.834;2023-06-10T12:58:01;9.07;;;5.10;;
75823;SDS011;64457;51.976;9.834;2023-06-10T13:00:29;12.87;;;5.30;;
75823;SDS011;64457;51.976;9.834;2023-06-10T13:03:00;12.17;;;4.97;;
75823;SDS011;64457;51.976;9.834;2023-06-10T13:05:28;11.30;;;5.17;;
75823;SDS011;64457;51.976;9.834;2023-06-10T13:07:57;13.90;;;4.97;;
75823;SDS011;64457;51.976;9.834;2023-06-10T13:10:25;11.27;;;5.07;;
75823;SDS011;64457;51.976;9.834;2023-06-10T13:12:53;13.73;;;5.20;;
75823;SDS011;64457;51.976;9.834;2023-06-10T13:15:22;10.57;;;4.90;;
75823;SDS011;64457;51.976;9.834;2023-06-10T13:17:51;13.70;;;5.73;;
75823;SDS011;64457;51.976;9.834;2023-06-10T13:20:19;14.53;;;5.60;;
75823;SDS011;64457;51.976;9.834;2023-06-10T13:22:47;14.97;;;5.40;;
75823;SDS011;64457;51.976;9.834;2023-06-10T13:25:14;12.23;;;5.00;;
75823;SDS011;64457;51.976;9.834;2023-06-10T13:27:42;11.60;;;5.43;;
75823;SDS011;64457;51.976;9.834;2023-06-10T13:30:10;9.97;;;4.70;;
75823;SDS011;64457;51.976;9.834;2023-06-10T13:32:39;9.30;;;4.53;;
75823;SDS011;64457;51.976;9.834;2023-06-10T13:35:07;10.50;;;4.77;;
75823;SDS011;64457;51.976;9.834;2023-06-10T13:37:35;11.90;;;4.77;;
75823;SDS011;64457;51.976;9.834;2023-06-10T13:40:03;15.50;;;5.23;;
75823;SDS011;64457;51.976;9.834;2023-06-10T13:42:33;10.30;;;5.13;;
75823;SDS011;64457;51.976;9.834;2023-06-10T13:45:01;10.10;;;5.30;;
75823;SDS011;64457;51.976;9.834;2023-06-10T13:47:29;12.10;;;5.30;;
75823;SDS011;64457;51.976;9.834;2023-06-10T13:49:58;10.83;;;4.70;;
75823;SDS011;64457;51.976;9.834;2023-06-10T13:52:25;9.70;;;4.80;;
75823;SDS011;64457;51.976;9.834;2023-06-10T13:54:53;11.70;;;5.60;;
75823;SDS011;64457;51.976;9.834;2023-06-10T13:57:20;11.03;;;4.70;;
75823;SDS011;64457;51.976;9.834;2023-06-10T13:59:47;14.20;;;5.20;;
75823;SDS011;64457;51.976;9.834;2023-06-10T14:02:15;11.30;;;5.00;;
75823;SDS011;64457;51.976;9.834;2023-06-10T14:04:43;10.43;;;5.10;;
75823;SDS011;64457;51.976;9.834;2023-06-10T14:07:11;11.90;;;5.20;;
75823;SDS011;64457;51.976;9.834;2023-06-10T14:09:40;11.33;;;4.67;;
75823;SDS011;64457;51.976;9.834;2023-06-10T14:12:09;9.50;;;4.67;;
75823;SDS011;64457;51.976;9.834;2023-06-10T14:14:36;12.00;;;4.80;;
75823;SDS011;64457;51.976;9.834;2023-06-10T14:17:04;14.30;;;4.83;;
75823;SDS011;64457;51.976;9.834;2023-06-10T14:19:31;10.50;;;5.00;;
75823;SDS011;64457;51.976;9.834;2023-06-10T14:21:59;11.73;;;4.70;;
75823;SDS011;64457;51.976;9.834;2023-06-10T14:24:28;15.23;;;4.83;;
75823;SDS011;64457;51.976;9.834;2023-06-10T14:26:55;11.70;;;4.63;;
75823;SDS011;64457;51.976;9.834;2023-06-10T14:29:23;14.77;;;4.30;;
75823;SDS011;64457;51.976;9.834;2023-06-10T14:31:54;13.10;;;5.10;;
75823;SDS011;64457;51.976;9.834;2023-06-10T14:34:21;14.13;;;4.83;;
75823;SDS011;64457;51.976;9.834;2023-06-10T14:36:53;11.47;;;5.07;;
75823;SDS011;64457;51.976;9.834;2023-06-10T14:39:21;11.33;;;4.73;;
75823;SDS011;64457;51.976;9.834;2023-06-10T14:41:50;18.50;;;4.90;;
75823;SDS011;64457;51.976;9.834;2023-06-10T14:44:19;10.67;;;4.90;;
75823;SDS011;64457;51.976;9.834;2023-06-10T14:46:48;9.97;;;4.47;;
75823;SDS011;64457;51.976;9.834;2023-06-10T14:49:15;10.13;;;4.63;;
75823;SDS011;64457;51.976;9.834;2023-06-10T14:51:42;11.30;;;5.27;;